Time;durP1;ratioP1;P1;durP2;ratioP2;P2;SDS_P1;SDS_P2;PMS_P1;PMS_P2;Temp;Humidity;BMP_temperature;BMP_pressure;BME280_temperature;BME280_humidity;BME280_pressure;Samples;Min_cycle;Max_cycle;Signal;HPM_P1;HPM_P2
2023/04/05 00:00:53;;;;;;;9.32;7.20;;;;;;;2.34;56.34;97178.00;6190703;23;20533;-77
2023/04/05 00:03:20;;;;;;;22.25;12.05;;;;;;;2.31;56.04;97167.91;6186965;23;20108;-77
2023/04/05 00:05:49;;;;;;;19.98;11.82;;;;;;;2.35;57.12;97169.31;6187785;23;20141;-78
2023/04/05 00:08:25;;;;;;;28.50;14.25;;;;;;;2.41;55.04;97158.56;6186958;23;20056;-77
2023/04/05 00:10:53;;;;;;;26.05;14.07;;;;;;;2.34;53.70;97156.56;6186379;23;20032;-78
2023/04/05 00:13:21;;;;;;;23.85;12.70;;;;;;;2.21;53.33;97156.69;6186626;23;20104;-78
2023/04/05 00:15:49;;;;;;;25.20;12.45;;;;;;;2.06;53.49;97149.19;6186192;23;20052;-77
2023/04/05 00:18:22;;;;;;;17.90;10.27;;;;;;;1.98;53.77;97156.63;6186489;23;20056;-77
2023/04/05 00:20:51;;;;;;;14.70;9.60;;;;;;;1.98;53.26;97156.63;6186633;23;20459;-77
2023/04/05 00:23:20;;;;;;;16.38;8.68;;;;;;;1.91;54.39;97150.31;6185820;23;20032;-77
2023/04/05 00:25:48;;;;;;;11.88;8.45;;;;;;;1.91;55.62;97145.19;6186692;23;20056;-77
2023/04/05 00:28:15;;;;;;;15.27;8.98;;;;;;;1.94;54.54;97149.28;6186439;23;20096;-77
2023/04/05 00:30:43;;;;;;;13.40;7.90;;;;;;;1.88;54.04;97152.28;6187075;23;20021;-77
2023/04/05 00:33:11;;;;;;;14.77;7.47;;;;;;;1.83;54.49;97153.44;6186587;23;20021;-77
2023/04/05 00:35:40;;;;;;;12.10;7.55;;;;;;;1.84;54.96;97151.72;6187184;23;20021;-77
2023/04/05 00:38:08;;;;;;;9.30;7.18;;;;;;;1.84;55.88;97149.97;6186759;23;20021;-77
2023/04/05 00:40:36;;;;;;;9.90;6.80;;;;;;;1.85;55.00;97141.28;6186420;23;20493;-77
2023/04/05 00:43:03;;;;;;;11.30;7.53;;;;;;;1.79;54.52;97144.34;6186072;23;20429;-77
2023/04/05 00:45:31;;;;;;;12.57;7.18;;;;;;;1.80;54.67;97140.00;6186327;23;20027;-77
2023/04/05 00:48:00;;;;;;;8.68;7.43;;;;;;;1.81;54.70;97144.22;6186734;23;20028;-77
2023/04/05 00:50:29;;;;;;;9.63;7.20;;;;;;;1.76;54.26;97136.03;6186662;23;20025;-77
2023/04/05 00:52:58;;;;;;;9.05;6.57;;;;;;;1.70;54.06;97136.47;6185757;23;20017;-77
2023/04/05 00:55:28;;;;;;;10.48;7.03;;;;;;;1.62;54.01;97131.91;6187006;23;20415;-77
2023/04/05 00:57:55;;;;;;;8.80;6.10;;;;;;;1.54;53.89;97131.66;6186843;23;20407;-77
2023/04/05 01:00:23;;;;;;;9.57;6.47;;;;;;;1.54;54.46;97132.47;6186280;23;20096;-77
2023/04/05 01:02:56;;;;;;;8.50;6.57;;;;;;;1.53;54.13;97130.00;6185816;23;20033;-77
2023/04/05 01:05:34;;;;;;;11.65;6.90;;;;;;;1.49;56.71;97120.84;6186702;23;20028;-77
2023/04/05 01:08:13;;;;;;;11.48;8.35;;;;;;;1.49;55.92;97123.44;6185728;23;20029;-77
2023/04/05 01:10:46;;;;;;;15.65;8.25;;;;;;;1.51;58.55;97112.13;6185904;23;20028;-77
2023/04/05 01:13:16;;;;;;;10.63;7.38;;;;;;;1.50;56.15;97113.03;6185346;23;20470;-78
2023/04/05 01:15:43;;;;;;;8.90;6.57;;;;;;;1.42;55.62;97098.19;6185664;23;20048;-78
2023/04/05 01:18:11;;;;;;;10.95;7.60;;;;;;;1.35;55.73;97099.56;6186197;23;20021;-77
2023/04/05 01:20:45;;;;;;;10.77;7.15;;;;;;;1.36;56.36;97097.81;6185622;23;20017;-77
2023/04/05 01:23:43;;;;;;;13.00;7.55;;;;;;;1.37;55.99;97099.44;6185728;23;20027;-77
2023/04/05 01:26:44;;;;;;;9.90;6.75;;;;;;;1.39;56.80;97089.88;6185523;23;20035;-77
2023/04/05 01:29:43;;;;;;;11.68;7.10;;;;;;;1.41;55.83;97090.59;6186195;23;20020;-77
2023/04/05 01:32:18;;;;;;;10.10;6.78;;;;;;;1.48;58.41;97084.06;6185893;23;20336;-77
2023/04/05 01:34:51;;;;;;;10.95;7.45;;;;;;;1.52;56.25;97088.03;6186264;23;20025;-77
2023/04/05 01:37:22;;;;;;;9.25;6.95;;;;;;;1.48;56.46;97091.75;6186148;23;20044;-78
2023/04/05 01:39:50;;;;;;;10.35;6.53;;;;;;;1.44;56.16;97086.03;6185872;23;20137;-77
2023/04/05 01:42:24;;;;;;;10.93;6.72;;;;;;;1.39;55.95;97077.03;6185501;23;20021;-77
2023/04/05 01:44:54;;;;;;;9.18;6.55;;;;;;;1.36;56.16;97077.25;6186128;23;20100;-77
2023/04/05 01:47:21;;;;;;;8.57;6.10;;;;;;;1.36;55.95;97080.63;6186040;23;20020;-77
2023/04/05 01:49:49;;;;;;;9.45;6.07;;;;;;;1.36;55.92;97066.97;6185542;23;20024;-77
2023/04/05 01:52:17;;;;;;;8.18;5.55;;;;;;;1.41;55.13;97077.72;6185530;23;20021;-77
2023/04/05 01:54:44;;;;;;;7.30;5.63;;;;;;;1.42;56.25;97069.91;6187473;23;20420;-81
2023/04/05 01:57:12;;;;;;;8.07;5.63;;;;;;;1.51;56.36;97076.13;6191189;23;20354;-82
2023/04/05 01:59:40;;;;;;;10.05;5.60;;;;;;;1.60;56.63;97070.31;6189890;23;20027;-81
2023/04/05 02:02:08;;;;;;;7.50;5.75;;;;;;;1.64;55.14;97068.31;6189469;23;20108;-80
2023/04/05 02:04:36;;;;;;;8.23;5.78;;;;;;;1.68;57.00;97067.13;6190000;23;20021;-80
2023/04/05 02:07:04;;;;;;;7.38;5.47;;;;;;;1.74;56.18;97066.69;6190247;23;20056;-81
2023/04/05 02:09:31;;;;;;;6.15;5.13;;;;;;;1.70;55.10;97062.69;6189234;23;20017;-82
2023/04/05 02:12:00;;;;;;;9.35;4.93;;;;;;;1.62;54.46;97062.47;6189235;23;20390;-82
2023/04/05 02:14:27;;;;;;;7.88;5.72;;;;;;;1.52;54.53;97061.50;6188972;23;20062;-82
2023/04/05 02:16:55;;;;;;;8.55;5.80;;;;;;;1.49;56.17;97064.28;6189575;23;20021;-79
2023/04/05 02:19:24;;;;;;;6.60;5.07;;;;;;;1.52;58.02;97064.91;6189930;23;20358;-79
2023/04/05 02:21:53;;;;;;;7.32;6.00;;;;;;;1.57;56.05;97060.22;6188749;23;20259;-80
2023/04/05 02:24:21;;;;;;;7.60;5.65;;;;;;;1.52;55.57;97056.38;6188731;23;20506;-80
2023/04/05 02:26:50;;;;;;;9.65;6.55;;;;;;;1.39;55.29;97056.47;6190618;23;20021;-81
2023/04/05 02:29:17;;;;;;;8.38;5.40;;;;;;;1.24;55.57;97054.06;6190718;23;20096;-81
2023/04/05 02:31:45;;;;;;;11.35;6.25;;;;;;;1.24;56.21;97054.06;6191055;23;20025;-80
2023/04/05 02:34:13;;;;;;;7.38;5.55;;;;;;;1.27;55.90;97055.63;6192130;23;20032;-80
2023/04/05 02:36:42;;;;;;;6.97;5.55;;;;;;;1.26;55.65;97059.09;6192130;23;20028;-80
2023/04/05 02:39:10;;;;;;;9.35;5.60;;;;;;;1.21;55.67;97056.88;6191791;23;20087;-79
2023/04/05 02:41:38;;;;;;;9.50;5.82;;;;;;;1.19;55.66;97051.03;6191439;23;20337;-80
2023/04/05 02:44:05;;;;;;;9.45;5.65;;;;;;;1.19;55.26;97050.22;6190936;23;20025;-83
2023/04/05 02:46:33;;;;;;;10.05;5.60;;;;;;;1.15;55.29;97054.75;6191734;23;20023;-82
2023/04/05 02:49:01;;;;;;;10.18;6.13;;;;;;;1.07;56.03;97046.78;6191322;23;20525;-78
2023/04/05 02:51:28;;;;;;;8.85;6.00;;;;;;;1.05;56.19;97048.66;6191152;23;20044;-79
2023/04/05 02:53:57;;;;;;;9.68;6.70;;;;;;;1.03;56.17;97046.19;6190898;23;20028;-80
2023/04/05 02:56:25;;;;;;;7.30;5.97;;;;;;;1.04;56.20;97052.16;6190833;23;20024;-78
2023/04/05 02:58:52;;;;;;;7.85;6.05;;;;;;;0.99;56.04;97055.06;6190838;23;20453;-81
2023/04/05 03:01:21;;;;;;;8.27;5.70;;;;;;;0.94;55.88;97046.88;6190857;23;20029;-82
2023/04/05 03:03:49;;;;;;;10.57;7.07;;;;;;;0.92;56.13;97047.88;6190444;23;20079;-79
2023/04/05 03:06:19;;;;;;;13.48;7.22;;;;;;;0.92;57.87;97043.59;6190731;23;20025;-78
2023/04/05 03:08:48;;;;;;;13.70;7.63;;;;;;;0.98;57.02;97047.44;6190842;23;20033;-82
2023/04/05 03:11:17;;;;;;;12.13;7.10;;;;;;;1.02;59.35;97038.59;6191188;23;20017;-81
2023/04/05 03:13:44;;;;;;;9.60;7.45;;;;;;;1.10;59.53;97035.47;6190989;23;20025;-82
2023/04/05 03:16:12;;;;;;;12.70;7.88;;;;;;;1.14;57.70;97037.72;6190859;23;20512;-80
2023/04/05 03:18:40;;;;;;;9.93;7.38;;;;;;;1.16;58.83;97032.44;6191488;23;20362;-82
2023/04/05 03:21:11;;;;;;;8.20;6.97;;;;;;;1.19;59.00;97035.63;6191167;23;20459;-82
2023/04/05 03:23:39;;;;;;;13.55;6.65;;;;;;;1.22;57.78;97035.41;6190868;23;20079;-81
2023/04/05 03:26:06;;;;;;;9.05;6.45;;;;;;;1.24;57.44;97033.50;6190643;23;20017;-83
2023/04/05 03:28:35;;;;;;;11.35;6.75;;;;;;;1.29;56.61;97034.94;6192224;23;20027;-79
2023/04/05 03:31:03;;;;;;;8.82;6.15;;;;;;;1.26;56.14;97025.69;6200290;23;20024;-86
2023/04/05 03:33:30;;;;;;;7.40;5.53;;;;;;;1.20;55.77;97032.13;6193254;23;20471;-87
2023/04/05 03:35:59;;;;;;;10.63;6.28;;;;;;;1.20;56.13;97026.97;6191291;23;20028;-86
2023/04/05 03:38:27;;;;;;;10.35;5.65;;;;;;;1.17;55.36;97027.19;6192562;23;20025;-87
2023/04/05 03:40:54;;;;;;;7.47;5.93;;;;;;;1.13;55.44;97025.78;6192041;23;20052;-85
2023/04/05 03:43:22;;;;;;;8.23;6.07;;;;;;;1.00;55.46;97020.72;6191330;23;20032;-89
2023/04/05 03:45:51;;;;;;;8.43;5.70;;;;;;;0.95;55.19;97025.38;6196448;23;20025;-82
2023/04/05 03:48:20;;;;;;;10.23;6.03;;;;;;;0.89;55.35;97023.25;6192119;23;20032;-89
2023/04/05 03:50:48;;;;;;;11.75;6.15;;;;;;;0.82;55.64;97025.44;6192656;23;20017;-85
2023/04/05 03:53:17;;;;;;;7.13;6.07;;;;;;;0.73;55.50;97023.53;6192453;23;20021;-86
2023/04/05 03:55:48;;;;;;;9.55;7.10;;;;;;;0.70;57.08;97028.06;6193120;23;20500;-86
2023/04/05 03:58:16;;;;;;;10.50;7.75;;;;;;;0.76;58.64;97033.56;6193183;23;20024;-84
2023/04/05 04:00:43;;;;;;;12.82;8.90;;;;;;;0.80;57.68;97029.03;6192642;23;20021;-82
2023/04/05 04:03:12;;;;;;;15.40;7.57;;;;;;;0.73;57.19;97023.53;6191859;23;20028;-88
2023/04/05 04:05:40;;;;;;;14.27;7.93;;;;;;;0.66;57.17;97029.25;6193245;23;20017;-85
2023/04/05 04:08:09;;;;;;;13.82;8.50;;;;;;;0.56;57.41;97029.88;6193242;23;20403;-84
2023/04/05 04:10:36;;;;;;;9.30;6.93;;;;;;;0.55;58.89;97030.00;6192950;23;20057;-88
2023/04/05 04:13:04;;;;;;;13.00;7.93;;;;;;;0.64;59.02;97034.47;6192946;23;20021;-80
2023/04/05 04:15:31;;;;;;;11.05;7.28;;;;;;;0.73;58.75;97033.00;6191530;23;20027;-87
2023/04/05 04:17:59;;;;;;;11.45;6.93;;;;;;;0.76;57.94;97038.72;6191142;23;20021;-86
2023/04/05 04:20:28;;;;;;;11.25;7.82;;;;;;;0.79;59.57;97032.56;6190880;23;20036;-85
2023/04/05 04:22:57;;;;;;;9.77;6.70;;;;;;;0.89;59.43;97041.22;6192034;23;20366;-83
2023/04/05 04:25:25;;;;;;;8.48;6.50;;;;;;;0.93;57.86;97034.13;6191904;23;20021;-87
2023/04/05 04:27:53;;;;;;;8.65;6.65;;;;;;;0.87;57.07;97039.69;6192125;23;20031;-86
2023/04/05 04:30:21;;;;;;;10.55;7.13;;;;;;;0.77;57.18;97035.22;6191876;23;20031;-83
2023/04/05 04:32:53;;;;;;;10.75;7.82;;;;;;;0.70;57.39;97028.91;6192013;23;20025;-84
2023/04/05 04:35:23;;;;;;;13.30;7.10;;;;;;;0.66;57.28;97034.38;6191991;23;20025;-87
2023/04/05 04:37:56;;;;;;;11.48;7.18;;;;;;;0.63;57.15;97037.94;6191543;23;20021;-85
2023/04/05 04:40:25;;;;;;;11.02;7.30;;;;;;;0.61;56.80;97044.94;6190456;23;20032;-81
2023/04/05 04:42:53;;;;;;;11.48;7.57;;;;;;;0.50;56.90;97042.31;6190509;23;20027;-86
2023/04/05 04:45:21;;;;;;;11.65;7.85;;;;;;;0.38;57.03;97044.81;6190025;23;20020;-85
2023/04/05 04:47:52;;;;;;;11.60;7.93;;;;;;;0.31;57.45;97043.63;6190050;23;20075;-89
2023/04/05 04:50:20;;;;;;;13.20;9.30;;;;;;;0.34;57.72;97043.41;6190511;23;20107;-85
2023/04/05 04:52:48;;;;;;;9.75;7.40;;;;;;;0.40;58.67;97042.97;6190110;23;20025;-82
2023/04/05 04:55:17;;;;;;;13.63;8.00;;;;;;;0.46;57.67;97043.47;6161149;23;20081;-82
2023/04/05 04:57:45;;;;;;;13.13;8.30;;;;;;;0.50;57.32;97047.44;6160720;23;20026;-83
2023/04/05 05:00:15;;;;;;;11.25;8.18;;;;;;;0.47;57.18;97045.94;6161201;23;20028;-84
2023/04/05 05:02:43;;;;;;;14.32;8.30;;;;;;;0.37;57.39;97038.06;6160246;23;20022;-84
2023/04/05 05:05:11;;;;;;;14.95;8.82;;;;;;;0.29;57.61;97039.53;6160662;23;20053;-87
2023/04/05 05:07:40;;;;;;;15.43;8.52;;;;;;;0.25;57.68;97038.91;6160396;23;20053;-84
2023/04/05 05:10:10;;;;;;;12.20;8.60;;;;;;;0.24;57.72;97037.28;6160711;23;20025;-82
2023/04/05 05:12:39;;;;;;;11.38;8.90;;;;;;;0.26;58.38;97040.53;6157373;23;20031;-82
2023/04/05 05:15:07;;;;;;;11.63;7.78;;;;;;;0.27;58.83;97046.50;6160666;23;20021;-82
2023/04/05 05:17:36;;;;;;;13.57;8.00;;;;;;;0.23;58.92;97048.47;6160998;23;20032;-83
2023/04/05 05:20:09;;;;;;;16.10;8.55;;;;;;;0.17;59.01;97039.44;6160681;23;20029;-83
2023/04/05 05:22:37;;;;;;;12.63;8.30;;;;;;;0.13;59.08;97039.75;6159962;23;20526;-84
2023/04/05 05:25:07;;;;;;;18.20;8.90;;;;;;;0.10;58.77;97045.09;6161392;23;20329;-82
2023/04/05 05:27:35;;;;;;;11.93;8.68;;;;;;;0.08;59.56;97036.69;6159959;23;20025;-84
2023/04/05 05:30:05;;;;;;;15.70;8.70;;;;;;;0.09;59.46;97040.88;6160038;23;20608;-80
2023/04/05 05:32:32;;;;;;;17.00;8.55;;;;;;;0.07;59.38;97042.75;6159750;23;20085;-84
2023/04/05 05:35:00;;;;;;;17.17;9.73;;;;;;;0.08;59.85;97036.69;6159752;23;20028;-81
2023/04/05 05:37:30;;;;;;;20.40;9.85;;;;;;;0.09;59.39;97038.31;6159625;23;20028;-80
2023/04/05 05:39:57;;;;;;;13.00;8.88;;;;;;;0.03;58.92;97021.63;6159292;23;20026;-81
2023/04/05 05:42:26;;;;;;;17.00;8.32;;;;;;;-0.01;59.11;97033.81;6158757;23;20467;-88
2023/04/05 05:44:53;;;;;;;15.23;9.00;;;;;;;0.01;59.45;97035.47;6160737;23;20478;-85
2023/04/05 05:47:22;;;;;;;12.02;8.13;;;;;;;0.05;59.79;97040.28;6158635;23;20018;-81
2023/04/05 05:49:50;;;;;;;11.35;8.57;;;;;;;0.14;61.35;97036.28;6158159;23;20026;-85
2023/04/05 05:52:17;;;;;;;14.00;9.32;;;;;;;0.27;61.02;97049.06;6156921;23;20022;-80
2023/04/05 05:54:46;;;;;;;32.47;11.40;;;;;;;0.28;59.60;97051.50;6179218;23;20025;-79
2023/04/05 05:57:13;;;;;;;15.40;9.23;;;;;;;0.24;59.47;97051.84;6187595;23;20025;-82
2023/04/05 05:59:41;;;;;;;16.45;9.80;;;;;;;0.15;59.11;97043.03;6186735;23;20031;-85
2023/04/05 06:02:08;;;;;;;16.35;10.52;;;;;;;0.08;59.26;97046.94;6186442;23;20466;-82
2023/04/05 06:04:37;;;;;;;15.35;9.48;;;;;;;0.09;61.29;97048.56;6186239;23;20025;-84
2023/04/05 06:07:05;;;;;;;21.25;10.18;;;;;;;0.14;60.50;97051.66;6187625;23;20103;-82
2023/04/05 06:09:34;;;;;;;15.10;10.15;;;;;;;0.18;60.02;97053.91;6188745;23;20021;-87
2023/04/05 06:12:01;;;;;;;15.65;9.93;;;;;;;0.15;59.66;97056.69;6187822;23;20116;-82
2023/04/05 06:14:30;;;;;;;14.52;10.73;;;;;;;0.11;59.38;97049.28;6188130;23;20021;-82
2023/04/05 06:16:57;;;;;;;13.25;10.02;;;;;;;0.11;59.60;97057.00;6187636;23;20025;-80
2023/04/05 06:19:25;;;;;;;16.20;10.05;;;;;;;0.12;59.55;97048.38;6187601;23;20025;-85
2023/04/05 06:21:54;;;;;;;14.07;9.60;;;;;;;0.16;59.63;97057.50;6187879;23;20017;-84
2023/04/05 06:24:22;;;;;;;13.95;9.77;;;;;;;0.17;59.42;97064.28;6187243;23;20021;-83
2023/04/05 06:26:51;;;;;;;16.48;9.80;;;;;;;0.23;59.54;97068.97;6188352;23;20025;-82
2023/04/05 06:29:18;;;;;;;14.75;9.10;;;;;;;0.26;59.27;97057.69;6188953;23;20351;-83
2023/04/05 06:31:47;;;;;;;13.63;9.93;;;;;;;0.27;59.17;97055.03;6186577;23;20017;-79
2023/04/05 06:34:15;;;;;;;13.15;9.55;;;;;;;0.30;59.24;97054.78;6187433;23;20127;-79
2023/04/05 06:36:42;;;;;;;13.10;8.55;;;;;;;0.37;59.15;97060.31;6187849;23;20029;-79
2023/04/05 06:39:11;;;;;;;14.80;9.32;;;;;;;0.40;59.21;97050.66;6188098;23;20076;-77
2023/04/05 06:41:38;;;;;;;14.50;9.13;;;;;;;0.47;59.18;97052.81;6188314;23;20073;-79
2023/04/05 06:44:06;;;;;;;15.32;9.35;;;;;;;0.55;59.00;97058.22;6188722;23;20057;-80
2023/04/05 06:46:34;;;;;;;13.05;8.20;;;;;;;0.66;59.95;97058.28;6188826;23;20029;-78
2023/04/05 06:49:01;;;;;;;11.68;9.35;;;;;;;0.88;61.36;97062.72;6188868;23;20031;-79
2023/04/05 06:51:30;;;;;;;14.52;9.70;;;;;;;1.11;61.13;97053.34;6187942;23;20025;-80
2023/04/05 06:53:58;;;;;;;13.18;9.63;;;;;;;1.30;61.46;97059.72;6188248;23;20124;-78
2023/04/05 06:56:27;;;;;;;19.52;9.13;;;;;;;1.44;60.77;97059.50;6189370;23;20044;-79
2023/04/05 06:58:56;;;;;;;17.10;10.40;;;;;;;1.60;61.49;97059.19;6188642;23;20246;-81
2023/04/05 07:01:25;;;;;;;15.30;8.82;;;;;;;1.82;60.58;97048.13;6189304;23;20021;-83
2023/04/05 07:03:53;;;;;;;14.98;9.82;;;;;;;1.92;58.68;97051.59;6189567;23;20021;-84
2023/04/05 07:06:22;;;;;;;17.92;10.68;;;;;;;2.04;59.75;97050.69;6189375;23;20025;-86
2023/04/05 07:08:51;;;;;;;14.43;10.13;;;;;;;2.17;57.95;97054.91;6189158;23;20028;-80
2023/04/05 07:11:20;;;;;;;17.00;10.02;;;;;;;2.31;57.19;97059.78;6189562;23;20025;-84
2023/04/05 07:13:49;;;;;;;14.20;8.95;;;;;;;2.40;56.17;97063.41;6190663;23;20293;-84
2023/04/05 07:16:21;;;;;;;15.07;9.98;;;;;;;2.53;55.85;97063.28;6191144;23;20021;-79
2023/04/05 07:18:50;;;;;;;13.80;8.65;;;;;;;2.65;55.96;97057.16;6190666;23;20025;-80
2023/04/05 07:21:17;;;;;;;17.70;8.15;;;;;;;2.82;55.16;97058.38;6189447;23;20025;-82
2023/04/05 07:23:45;;;;;;;13.85;8.35;;;;;;;2.99;57.20;97057.03;6189973;23;20411;-79
2023/04/05 07:26:12;;;;;;;11.52;8.38;;;;;;;3.17;55.43;97052.16;6189531;23;20021;-83
2023/04/05 07:28:40;;;;;;;10.73;8.23;;;;;;;3.33;54.41;97051.75;6189126;23;20025;-78
2023/04/05 07:31:09;;;;;;;9.77;7.15;;;;;;;3.52;53.22;97054.47;6189759;23;20021;-88
2023/04/05 07:33:36;;;;;;;13.27;7.88;;;;;;;3.73;54.92;97051.84;6188935;23;20021;-78
2023/04/05 07:36:04;;;;;;;11.75;7.70;;;;;;;3.94;53.11;97046.66;6188979;23;20063;-82
2023/04/05 07:38:32;;;;;;;11.82;7.93;;;;;;;4.12;52.59;97054.63;6189098;23;20525;-81
2023/04/05 07:40:59;;;;;;;11.20;7.00;;;;;;;4.32;51.52;97051.16;6189830;23;20024;-86
2023/04/05 07:43:27;;;;;;;10.63;6.82;;;;;;;4.51;50.12;97050.38;6189374;23;20023;-87
2023/04/05 07:46:01;;;;;;;10.70;6.22;;;;;;;4.68;51.82;97050.69;6191372;23;20104;-84
2023/04/05 07:48:30;;;;;;;10.40;6.38;;;;;;;4.84;49.15;97045.00;6190557;23;20028;-84
2023/04/05 07:51:03;;;;;;;7.63;5.22;;;;;;;5.01;47.60;97048.66;6190026;23;20084;-82
2023/04/05 07:53:31;;;;;;;7.70;4.93;;;;;;;5.24;47.34;97041.47;6185923;23;20031;-78
2023/04/05 07:55:59;;;;;;;7.40;4.75;;;;;;;5.47;46.24;97047.19;6185790;23;20529;-78
2023/04/05 07:58:29;;;;;;;9.13;5.18;;;;;;;5.72;46.93;97038.78;6185750;23;20020;-77
2023/04/05 08:00:59;;;;;;;5.85;3.95;;;;;;;6.00;44.91;97041.47;6186206;23;20111;-78
2023/04/05 08:03:27;;;;;;;5.13;3.85;;;;;;;6.41;46.04;97047.16;6185527;23;20017;-78
2023/04/05 08:05:56;;;;;;;6.03;5.20;;;;;;;7.91;42.40;97049.88;6186047;23;20100;-77
2023/04/05 08:08:24;;;;;;;6.40;4.53;;;;;;;10.31;38.75;97038.63;6185971;23;20027;-78
2023/04/05 08:10:52;;;;;;;6.07;4.50;;;;;;;12.45;35.74;97047.41;6186120;23;20027;-78
2023/04/05 08:13:19;;;;;;;5.80;4.25;;;;;;;14.00;31.84;97039.81;6185435;23;20331;-78
2023/04/05 08:15:47;;;;;;;8.43;4.32;;;;;;;15.12;29.32;97044.94;6185677;23;20028;-78
2023/04/05 08:18:14;;;;;;;7.20;4.53;;;;;;;15.90;28.72;97041.75;6185009;23;20025;-78
2023/04/05 08:20:42;;;;;;;6.30;4.65;;;;;;;16.63;29.54;97041.53;6185343;23;20036;-79
2023/04/05 08:23:11;;;;;;;7.20;4.78;;;;;;;17.48;26.30;97050.00;6184212;23;20028;-78
2023/04/05 08:25:39;;;;;;;5.97;3.50;;;;;;;18.19;25.29;97044.53;6185408;23;20385;-78
2023/04/05 08:28:09;;;;;;;5.35;4.13;;;;;;;18.56;25.68;97033.97;6185651;23;20059;-78
2023/04/05 08:30:37;;;;;;;6.63;4.18;;;;;;;18.56;25.08;97036.63;6185276;23;20597;-78
2023/04/05 08:33:06;;;;;;;7.28;4.60;;;;;;;18.90;24.63;97036.00;6190689;23;20036;-79
2023/04/05 08:35:36;;;;;;;5.43;4.28;;;;;;;19.29;23.06;97041.75;6200209;23;20056;-79
2023/04/05 08:38:03;;;;;;;5.20;3.92;;;;;;;19.73;23.91;97042.31;6196574;23;20024;-79
2023/04/05 08:40:40;;;;;;;5.50;3.90;;;;;;;20.05;23.32;97047.28;6186311;23;20021;-78
2023/04/05 08:43:12;;;;;;;3.70;3.40;;;;;;;20.65;23.31;97045.38;6185345;23;20017;-78
2023/04/05 08:45:47;;;;;;;6.25;4.72;;;;;;;21.00;21.65;97047.91;6184910;23;20477;-79
2023/04/05 08:48:15;;;;;;;5.07;4.25;;;;;;;21.17;21.08;97043.44;6185703;23;20028;-78
2023/04/05 08:50:50;;;;;;;4.97;4.03;;;;;;;21.23;21.85;97040.88;6185634;23;20025;-79
2023/04/05 08:53:18;;;;;;;6.75;4.40;;;;;;;21.17;20.82;97043.44;6184542;23;20355;-79
2023/04/05 08:55:49;;;;;;;6.15;4.20;;;;;;;21.26;20.43;97046.50;6185261;23;20052;-79
2023/04/05 08:58:20;;;;;;;6.28;4.38;;;;;;;21.53;19.40;97045.91;6184925;23;20032;-79
2023/04/05 09:00:50;;;;;;;4.35;3.95;;;;;;;21.60;19.84;97047.38;6185304;23;20025;-79
2023/04/05 09:03:22;;;;;;;4.45;3.95;;;;;;;21.22;19.75;97045.38;6184716;23;20028;-78
2023/04/05 09:05:52;;;;;;;5.55;4.45;;;;;;;21.17;19.63;97047.94;6185675;23;20021;-76
2023/04/05 09:08:21;;;;;;;5.10;4.60;;;;;;;20.54;20.22;97039.03;6185178;23;20024;-77
2023/04/05 09:10:51;;;;;;;5.05;4.35;;;;;;;19.27;20.77;97035.91;6185319;23;20099;-77
2023/04/05 09:13:19;;;;;;;5.90;4.18;;;;;;;19.70;23.06;97037.50;6184863;23;20021;-77
2023/04/05 09:15:47;;;;;;;6.57;4.10;;;;;;;20.11;21.52;97033.09;6184963;23;20052;-77
2023/04/05 09:18:14;;;;;;;5.60;3.30;;;;;;;20.24;21.33;97037.34;6184912;23;20021;-77
2023/04/05 09:20:56;;;;;;;6.28;3.85;;;;;;;20.26;22.74;97037.94;6185142;23;20048;-77
2023/04/05 09:23:24;;;;;;;6.20;4.07;;;;;;;19.88;20.26;97030.50;6184964;23;20480;-77
2023/04/05 09:25:53;;;;;;;5.22;3.83;;;;;;;19.11;20.13;97032.06;6185658;23;20027;-77
2023/04/05 09:28:20;;;;;;;4.10;3.70;;;;;;;18.47;20.87;97036.09;6185227;23;20043;-76
2023/04/05 09:30:48;;;;;;;4.90;4.30;;;;;;;17.94;21.54;97032.19;6184896;23;20027;-77
2023/04/05 09:33:19;;;;;;;4.78;3.75;;;;;;;17.68;21.09;97028.72;6184286;23;20020;-79
2023/04/05 09:35:50;;;;;;;9.05;4.78;;;;;;;17.52;21.41;97034.56;6184834;23;20095;-79
2023/04/05 09:38:17;;;;;;;7.20;4.55;;;;;;;17.01;21.97;97022.31;6185048;23;20025;-79
2023/04/05 09:40:46;;;;;;;5.93;3.95;;;;;;;16.48;22.26;97034.69;6184798;23;20103;-79
2023/04/05 09:43:37;;;;;;;5.20;3.60;;;;;;;16.12;24.38;97035.25;6184059;23;20482;-78
2023/04/05 09:46:05;;;;;;;5.22;4.20;;;;;;;16.00;23.45;97021.09;6184805;23;20100;-77
2023/04/05 09:48:46;;;;;;;6.15;4.32;;;;;;;15.85;22.91;97034.44;6184762;23;20052;-77
2023/04/05 09:51:14;;;;;;;6.30;4.78;;;;;;;15.78;23.94;97025.78;6188272;23;20029;-76
2023/04/05 09:53:57;;;;;;;6.43;3.97;;;;;;;15.81;24.07;97028.00;6185148;23;20017;-77
2023/04/05 09:56:24;;;;;;;4.93;3.63;;;;;;;15.99;25.28;97025.53;6185506;23;20025;-77
2023/04/05 09:58:58;;;;;;;5.90;4.05;;;;;;;16.17;24.42;97031.97;6184587;23;20100;-77
2023/04/05 10:01:27;;;;;;;4.40;3.55;;;;;;;16.35;24.77;97020.78;6184536;23;20532;-77
2023/04/05 10:03:57;;;;;;;8.65;5.15;;;;;;;16.35;23.22;97028.69;6184498;23;20025;-77
2023/04/05 10:06:34;;;;;;;5.28;4.05;;;;;;;16.00;22.31;97015.81;6193650;23;20073;-77
2023/04/05 10:09:03;;;;;;;4.50;3.80;;;;;;;15.52;23.57;97024.72;6209462;23;20040;-76
2023/04/05 10:11:32;;;;;;;6.15;4.75;;;;;;;15.06;23.69;97024.69;6207013;23;20025;-76
2023/04/05 10:14:03;;;;;;;7.57;4.72;;;;;;;14.55;23.82;97025.97;6195793;23;20336;-76
2023/04/05 10:16:34;;;;;;;4.20;3.78;;;;;;;14.21;24.76;97019.72;6184573;23;20021;-77
2023/04/05 10:19:05;;;;;;;4.90;3.45;;;;;;;14.16;25.78;97012.44;6184436;23;20040;-76
2023/04/05 10:21:40;;;;;;;3.97;3.58;;;;;;;14.28;28.96;97010.09;6184716;23;20522;-76
2023/04/05 10:24:18;;;;;;;4.63;3.63;;;;;;;14.53;26.38;97004.34;6184051;23;20017;-76
2023/04/05 10:26:51;;;;;;;9.65;5.63;;;;;;;14.78;25.07;97002.00;6184342;23;20481;-77
2023/04/05 10:29:30;;;;;;;5.50;4.22;;;;;;;14.84;24.87;96998.59;6184575;23;20362;-77
2023/04/05 10:32:03;;;;;;;5.03;3.92;;;;;;;14.81;24.26;96999.81;6184143;23;20025;-76
2023/04/05 10:34:40;;;;;;;4.07;3.47;;;;;;;14.73;24.21;96994.72;6184397;23;20485;-76
2023/04/05 10:37:12;;;;;;;4.38;3.88;;;;;;;14.83;24.65;97002.25;6184257;23;20517;-76
2023/04/05 10:39:42;;;;;;;8.10;4.68;;;;;;;14.91;24.47;97002.06;6184496;23;20043;-78
2023/04/05 10:42:15;;;;;;;5.97;3.58;;;;;;;14.90;24.12;96997.81;6184178;23;20354;-78
2023/04/05 10:44:46;;;;;;;3.58;3.28;;;;;;;15.06;26.96;96996.59;6183869;23;20101;-79
2023/04/05 10:47:16;;;;;;;4.20;3.67;;;;;;;15.24;26.53;97002.09;6185573;23;20095;-76
2023/04/05 10:49:47;;;;;;;5.10;4.20;;;;;;;15.45;24.24;97005.53;6186696;23;20024;-76
2023/04/05 10:52:16;;;;;;;5.28;3.85;;;;;;;15.44;23.65;96991.59;6186211;23;20340;-76
2023/04/05 10:54:44;;;;;;;4.95;4.05;;;;;;;15.33;24.48;96996.66;6185834;23;20103;-76
2023/04/05 10:57:13;;;;;;;5.07;4.32;;;;;;;15.35;24.07;96994.59;6186621;23;20025;-76
2023/04/05 10:59:42;;;;;;;5.60;3.45;;;;;;;15.31;25.16;96998.66;6186639;23;20021;-77
2023/04/05 11:02:12;;;;;;;4.93;4.07;;;;;;;15.32;24.94;97001.06;6186360;23;20048;-76
2023/04/05 11:04:40;;;;;;;5.63;3.65;;;;;;;15.32;24.15;96992.38;6186409;23;20024;-76
2023/04/05 11:07:14;;;;;;;5.00;3.60;;;;;;;15.36;25.72;96994.41;6186568;23;20028;-76
2023/04/05 11:09:53;;;;;;;8.02;5.55;;;;;;;15.58;23.25;96992.38;6186454;23;20023;-76
2023/04/05 11:12:40;;;;;;;4.93;4.40;;;;;;;15.53;23.02;96983.50;6186129;23;20048;-76
2023/04/05 11:15:31;;;;;;;8.35;3.95;;;;;;;15.38;23.59;96981.88;6185838;23;20021;-77
2023/04/05 11:18:08;;;;;;;5.55;4.18;;;;;;;15.31;23.78;96982.91;6186797;23;20021;-77
2023/04/05 11:20:43;;;;;;;5.72;4.00;;;;;;;15.27;24.12;96979.06;6186518;23;20029;-77
2023/04/05 11:23:12;;;;;;;4.70;3.55;;;;;;;15.24;25.08;96981.06;6186106;23;20031;-77
2023/04/05 11:25:45;;;;;;;4.07;3.67;;;;;;;15.22;24.28;96977.84;6186329;23;20025;-77
2023/04/05 11:28:23;;;;;;;5.28;4.22;;;;;;;15.07;23.05;96969.34;6185935;23;20025;-77
2023/04/05 11:30:55;;;;;;;7.35;4.95;;;;;;;14.78;24.21;96971.31;6186304;23;20029;-77
2023/04/05 11:33:55;;;;;;;4.25;3.70;;;;;;;14.55;25.39;96968.22;6186044;23;20021;-77
2023/04/05 11:36:32;;;;;;;4.25;3.78;;;;;;;14.70;25.97;96966.25;6186163;23;20022;-77
2023/04/05 11:39:25;;;;;;;4.15;3.75;;;;;;;14.85;24.29;96966.09;6186321;23;20420;-77
2023/04/05 11:42:02;;;;;;;;;;;;;;;14.78;24.11;96966.06;6186615;23;20045;-76
2023/04/05 11:44:39;;;;;;;4.97;3.60;;;;;;;14.46;24.42;96958.88;6187854;23;19916;-77
2023/04/05 11:47:07;;;;;;;6.60;4.05;;;;;;;14.23;24.49;96952.13;6191260;23;20024;-77